Time;durP1;ratioP1;P1;durP2;ratioP2;P2;SDS_P1;SDS_P2;PMS_P1;PMS_P2;Temp;Humidity;BMP_temperature;BMP_pressure;BME280_temperature;BME280_humidity;BME280_pressure;Samples;Min_cycle;Max_cycle;Signal;HPM_P1;HPM_P2
2022/08/17 00:00:31;;;;;;;4.78;2.42;;;;;;;30.98;63.14;97751.13;4798907;29;20071;-70
2022/08/17 00:03:31;;;;;;;3.95;2.05;;;;;;;30.55;64.51;97755.94;4797858;29;20062;-71
2022/08/17 00:06:34;;;;;;;2.30;1.95;;;;;;;30.82;63.29;97750.44;4798565;29;20064;-72
2022/08/17 00:09:17;;;;;;;4.22;2.25;;;;;;;30.55;64.86;97755.16;4798048;29;20050;-74
2022/08/17 00:12:06;;;;;;;2.92;2.38;;;;;;;30.79;63.85;97748.44;4798779;29;20074;-72
2022/08/17 00:15:15;;;;;;;3.17;2.65;;;;;;;30.63;64.63;97754.91;4814837;29;20046;-72
2022/08/17 00:18:04;;;;;;;4.47;2.75;;;;;;;30.91;63.97;97755.75;4816353;29;20478;-71
2022/08/17 00:21:08;;;;;;;4.15;3.10;;;;;;;30.60;65.25;97763.16;4816945;29;20133;-74
2022/08/17 00:24:05;;;;;;;3.15;2.70;;;;;;;30.88;64.67;97759.22;4816164;29;20386;-71
2022/08/17 00:26:46;;;;;;;3.88;2.80;;;;;;;30.91;64.57;97756.53;4816141;29;20061;-73
2022/08/17 00:29:36;;;;;;;3.42;3.00;;;;;;;30.54;65.17;97759.91;4802973;29;20065;-71
2022/08/17 00:32:18;;;;;;;3.95;2.97;;;;;;;30.74;65.24;97757.84;4822294;29;20062;-72
2022/08/17 00:35:30;;;;;;;5.32;3.22;;;;;;;30.94;64.20;97761.34;4808263;29;20244;-72
2022/08/17 00:38:26;;;;;;;4.20;3.10;;;;;;;30.76;64.62;97765.78;4832095;29;20068;-71
2022/08/17 00:41:08;;;;;;;3.58;2.92;;;;;;;30.50;65.64;97759.03;4812894;29;20426;-70
2022/08/17 00:44:10;;;;;;;4.97;3.38;;;;;;;30.39;65.94;97767.16;4812726;29;20061;-71
2022/08/17 00:46:59;;;;;;;10.65;3.10;;;;;;;30.35;66.38;97771.03;4812493;29;20057;-73
2022/08/17 00:49:49;;;;;;;5.30;2.95;;;;;;;30.56;65.59;97763.09;4812188;29;20142;-71
2022/08/17 00:52:36;;;;;;;4.57;3.05;;;;;;;30.50;65.81;97769.31;4809221;29;20061;-74
2022/08/17 00:55:26;;;;;;;5.18;3.42;;;;;;;30.49;66.22;97778.78;4811271;29;20083;-73
2022/08/17 00:58:09;;;;;;;4.25;3.35;;;;;;;30.99;65.08;97780.44;4812193;29;20050;-69
2022/08/17 01:01:18;;;;;;;8.30;3.38;;;;;;;30.98;65.21;97789.91;4809705;29;20066;-71
2022/08/17 01:04:03;;;;;;;6.05;3.55;;;;;;;30.75;65.60;97795.44;4816944;29;20080;-73
2022/08/17 01:06:55;;;;;;;4.47;3.08;;;;;;;30.97;65.16;97795.81;4807515;29;20070;-70
2022/08/17 01:09:37;;;;;;;7.30;3.25;;;;;;;31.08;65.41;97809.84;4798872;29;20552;-74
2022/08/17 01:12:27;;;;;;;6.50;3.63;;;;;;;30.94;65.54;97805.69;4797242;29;20061;-71
2022/08/17 01:15:10;;;;;;;6.22;3.78;;;;;;;30.92;66.11;97802.47;4800872;29;20050;-71
2022/08/17 01:18:00;;;;;;;7.63;3.70;;;;;;;30.99;65.82;97810.91;4817630;29;20526;-72
2022/08/17 01:20:49;;;;;;;4.68;3.53;;;;;;;30.74;66.50;97820.75;4819432;29;20771;-72
2022/08/17 01:23:41;;;;;;;4.22;3.65;;;;;;;30.93;66.25;97829.00;4818887;29;20122;-74
2022/08/17 01:26:32;;;;;;;9.35;3.58;;;;;;;30.61;66.99;97826.47;4815939;29;20128;-73
2022/08/17 01:29:22;;;;;;;4.78;3.45;;;;;;;30.82;67.00;97830.75;4815746;29;20057;-72
2022/08/17 01:32:06;;;;;;;6.25;3.75;;;;;;;30.37;67.46;97826.81;4801424;29;20051;-72
2022/08/17 01:34:56;;;;;;;4.78;3.30;;;;;;;30.93;66.84;97834.53;4800700;29;20086;-75
2022/08/17 01:37:40;;;;;;;5.03;3.97;;;;;;;30.72;66.81;97831.38;4800046;29;20718;-73
2022/08/17 01:40:38;;;;;;;6.22;3.88;;;;;;;30.97;66.83;97840.16;4493957;29;10001241;-72
2022/08/17 01:43:27;;;;;;;6.80;4.20;;;;;;;30.61;67.51;97843.09;4833627;29;20144;-71
2022/08/17 01:46:20;;;;;;;7.63;3.67;;;;;;;30.87;66.48;97832.44;4833669;29;20057;-71
2022/08/17 01:49:11;;;;;;;10.85;3.97;;;;;;;31.32;65.58;97830.78;4803873;29;20142;-75
2022/08/17 01:52:02;;;;;;;5.38;4.03;;;;;;;31.14;66.16;97830.53;4784839;29;20051;-74
2022/08/17 01:54:46;;;;;;;5.93;4.13;;;;;;;30.98;66.86;97830.69;4782567;29;20536;-71
2022/08/17 01:57:35;;;;;;;6.78;4.53;;;;;;;31.27;65.84;97820.81;4800941;29;20762;-72
2022/08/17 02:00:18;;;;;;;7.88;4.40;;;;;;;31.15;66.83;97830.16;4797186;29;20086;-71
2022/08/17 02:03:29;;;;;;;5.20;4.15;;;;;;;31.57;65.42;97825.66;4778480;29;20070;-72
2022/08/17 02:06:11;;;;;;;7.00;4.50;;;;;;;31.61;65.33;97832.81;4785339;29;20722;-72
2022/08/17 02:09:08;;;;;;;9.25;4.93;;;;;;;31.35;66.01;97833.59;4778590;29;20225;-69
2022/08/17 02:12:01;;;;;;;8.68;4.57;;;;;;;31.65;65.00;97821.78;4792258;29;20369;-71
2022/08/17 02:15:16;;;;;;;11.52;4.47;;;;;;;31.76;64.94;97825.50;4798621;29;20400;-72
2022/08/17 02:17:57;;;;;;;8.73;4.53;;;;;;;31.48;65.56;97828.69;4799375;29;20059;-71
2022/08/17 02:20:48;;;;;;;9.77;5.53;;;;;;;30.86;67.63;97825.28;4819460;29;20062;-70
2022/08/17 02:23:40;;;;;;;7.00;4.80;;;;;;;31.65;65.57;97838.41;4804418;29;20053;-71
2022/08/17 02:26:29;;;;;;;6.93;4.95;;;;;;;32.48;63.11;97837.44;4804097;29;20157;-71
2022/08/17 02:29:11;;;;;;;8.50;5.07;;;;;;;33.23;60.19;97829.00;4820052;29;20529;-74
2022/08/17 02:32:00;;;;;;;8.88;4.35;;;;;;;33.14;61.00;97825.78;4817590;29;20073;-73
2022/08/17 02:34:41;;;;;;;9.50;4.45;;;;;;;33.28;60.28;97823.06;4817842;29;20039;-72
2022/08/17 02:37:32;;;;;;;7.47;4.22;;;;;;;34.24;57.04;97812.81;4817284;29;20050;-71
2022/08/17 02:40:14;;;;;;;4.85;3.75;;;;;;;33.20;59.97;97829.78;4818254;29;20098;-74
2022/08/17 02:43:16;;;;;;;8.02;4.25;;;;;;;33.94;58.47;97816.69;4818162;29;20058;-74
2022/08/17 02:46:04;;;;;;;5.28;4.03;;;;;;;34.46;56.64;97817.25;4816411;29;20558;-74
2022/08/17 02:48:53;;;;;;;8.40;4.15;;;;;;;33.89;58.26;97822.63;4818486;29;20055;-74
2022/08/17 02:51:42;;;;;;;8.88;4.50;;;;;;;33.45;59.58;97818.00;4802568;29;20050;-73
2022/08/17 02:54:24;;;;;;;5.15;4.05;;;;;;;32.60;62.48;97818.91;4819110;29;20050;-72
2022/08/17 02:57:22;;;;;;;5.90;4.38;;;;;;;33.18;60.61;97831.34;4818717;29;20050;-71
2022/08/17 03:00:16;;;;;;;5.60;4.20;;;;;;;32.92;62.11;97833.91;4801152;29;20070;-72
2022/08/17 03:02:59;;;;;;;9.02;4.50;;;;;;;33.33;61.10;97844.97;4799851;29;20304;-73
2022/08/17 03:05:52;;;;;;;8.55;5.05;;;;;;;32.39;63.03;97846.09;4801991;29;20058;-72
2022/08/17 03:08:33;;;;;;;8.05;4.63;;;;;;;32.68;62.36;97849.19;4819219;29;20057;-71
2022/08/17 03:11:22;;;;;;;6.90;4.60;;;;;;;32.80;61.78;97859.19;4832498;29;20062;-70
2022/08/17 03:14:05;;;;;;;6.07;4.18;;;;;;;32.26;62.94;97850.31;4818912;29;20496;-71
2022/08/17 03:16:53;;;;;;;12.65;5.38;;;;;;;32.75;61.91;97856.75;4817567;29;20054;-73
2022/08/17 03:19:36;;;;;;;7.93;4.82;;;;;;;32.81;62.58;97854.44;4832430;29;20045;-74
2022/08/17 03:22:27;;;;;;;7.05;4.45;;;;;;;33.25;61.46;97857.22;4828746;29;20057;-73
2022/08/17 03:25:25;;;;;;;6.53;4.68;;;;;;;32.70;62.71;97865.47;4820767;29;20053;-72
2022/08/17 03:28:07;;;;;;;5.93;4.55;;;;;;;32.77;61.98;97858.00;4828133;29;20643;-72
2022/08/17 03:30:57;;;;;;;7.93;4.78;;;;;;;32.37;63.67;97855.97;4836850;29;20054;-72
2022/08/17 03:33:40;;;;;;;9.43;4.85;;;;;;;32.66;62.81;97867.41;4805440;29;20134;-72
2022/08/17 03:36:29;;;;;;;7.35;5.00;;;;;;;32.41;62.72;97867.09;4800666;29;20760;-71
2022/08/17 03:39:16;;;;;;;7.90;5.22;;;;;;;32.60;62.79;97866.16;4803201;29;20065;-73
2022/08/17 03:42:27;;;;;;;5.13;4.63;;;;;;;32.77;62.47;97865.50;4822367;29;20118;-72
2022/08/17 03:45:16;;;;;;;8.55;5.20;;;;;;;32.10;63.88;97869.97;4809669;29;20054;-71
2022/08/17 03:57:14;;;;;;;7.78;4.60;;;;;;;32.68;62.49;97860.28;4827805;29;20568;-72
2022/08/17 04:00:03;;;;;;;7.88;4.00;;;;;;;32.56;62.54;97869.69;4821717;29;20058;-72
2022/08/17 04:02:46;;;;;;;5.97;3.90;;;;;;;33.12;60.96;97867.84;4802463;29;20186;-72
2022/08/17 04:05:35;;;;;;;7.03;4.13;;;;;;;33.13;60.52;97863.06;4825797;29;20054;-71
2022/08/17 04:08:17;;;;;;;5.57;3.45;;;;;;;32.90;60.41;97861.28;4826478;29;20085;-72
2022/08/17 04:11:07;;;;;;;6.03;3.72;;;;;;;32.71;60.64;97875.38;4839978;29;20050;-71
2022/08/17 04:13:49;;;;;;;7.13;4.00;;;;;;;33.63;59.44;97869.03;4833363;29;20046;-72
2022/08/17 04:16:40;;;;;;;5.32;3.63;;;;;;;33.94;59.12;97875.16;4829833;29;20065;-74
2022/08/17 04:19:22;;;;;;;13.60;4.47;;;;;;;33.89;58.65;97869.94;4829555;29;20053;-70
2022/08/17 04:22:10;;;;;;;8.57;4.30;;;;;;;33.78;59.28;97883.00;4824370;29;20118;-73
2022/08/17 04:25:17;;;;;;;13.02;3.85;;;;;;;33.37;59.29;97878.38;4824823;29;20051;-71
2022/08/17 04:28:07;;;;;;;5.15;3.78;;;;;;;33.91;58.47;97876.72;4818867;29;20046;-73
2022/08/17 04:30:56;;;;;;;13.55;4.25;;;;;;;34.63;56.59;97876.19;4819443;29;20902;-73
2022/08/17 04:33:47;;;;;;;6.30;4.18;;;;;;;35.40;55.20;97870.28;4808676;29;20106;-73
2022/08/17 04:36:29;;;;;;;7.03;3.08;;;;;;;34.80;55.19;97883.81;4814655;29;20177;-70
2022/08/17 04:39:18;;;;;;;7.20;3.40;;;;;;;34.71;56.13;97881.41;4814855;29;20061;-74
2022/08/17 04:42:15;;;;;;;9.98;3.33;;;;;;;35.90;53.17;97886.94;4814943;29;20055;-73
2022/08/17 04:44:58;;;;;;;4.18;2.78;;;;;;;35.55;52.39;97880.22;4808784;29;20155;-73
2022/08/17 04:47:54;;;;;;;4.90;2.75;;;;;;;35.46;53.63;97882.63;4826797;29;20138;-72
2022/08/17 04:50:29;;;;;;;6.65;3.50;;;;;;;35.13;54.37;97879.06;4820502;29;20046;-75
2022/08/17 04:53:18;;;;;;;6.25;2.63;;;;;;;35.63;52.99;97878.22;4820070;29;20115;-74
2022/08/17 04:56:01;;;;;;;6.43;2.55;;;;;;;36.19;51.74;97889.66;4821096;29;20141;-73
2022/08/17 04:59:07;;;;;;;4.03;2.80;;;;;;;36.66;50.66;97879.06;4803986;29;20513;-73
2022/08/17 05:01:51;;;;;;;6.13;2.92;;;;;;;35.68;52.26;97880.66;4812111;29;20111;-75
2022/08/17 05:04:40;;;;;;;3.63;3.13;;;;;;;36.15;52.17;97878.47;4812015;29;20050;-70
2022/08/17 05:07:29;;;;;;;3.53;2.80;;;;;;;35.76;52.33;97875.84;4817959;29;20111;-70
2022/08/17 05:10:18;;;;;;;3.53;2.70;;;;;;;36.14;51.27;97879.69;4810921;29;20067;-72
2022/08/17 05:13:08;;;;;;;;;;;;;;;36.76;50.88;97878.19;4814800;29;20086;-70
2022/08/17 05:16:00;;;;;;;9.52;3.40;;;;;;;36.49;51.39;97874.34;4811354;29;20349;-71
2022/08/17 05:18:48;;;;;;;3.80;3.47;;;;;;;36.03;52.30;97868.56;4811810;29;20046;-70
2022/08/17 05:21:31;;;;;;;6.65;3.08;;;;;;;35.74;54.21;97872.66;4808537;29;20062;-71
2022/08/17 05:24:19;;;;;;;5.22;2.83;;;;;;;36.28;52.63;97875.28;4810359;29;20391;-72
2022/08/17 05:27:21;;;;;;;5.50;2.67;;;;;;;36.79;51.66;97880.19;4816668;29;20065;-72
2022/08/17 05:30:14;;;;;;;4.32;2.50;;;;;;;36.61;51.23;97871.06;4809561;29;20059;-71
2022/08/17 05:33:00;;;;;;;3.40;2.15;;;;;;;36.30;51.56;97878.44;4805371;29;20560;-71
2022/08/17 05:35:52;;;;;;;4.40;2.30;;;;;;;37.25;50.26;97871.88;4808011;29;20083;-71
2022/08/17 05:38:34;;;;;;;4.40;2.55;;;;;;;35.71;53.23;97876.25;4801409;29;20178;-71
2022/08/17 05:41:23;;;;;;;3.97;2.33;;;;;;;36.79;50.09;97869.00;4800992;29;20054;-71
2022/08/17 05:44:04;;;;;;;6.53;2.17;;;;;;;36.66;49.99;97867.88;4800556;29;20088;-68
2022/08/17 05:47:00;;;;;;;7.57;2.40;;;;;;;35.95;53.29;97871.78;4799868;29;20158;-69
2022/08/17 05:49:36;;;;;;;5.53;2.08;;;;;;;35.80;52.06;97865.47;4800842;29;20362;-69
2022/08/17 05:52:46;;;;;;;2.70;2.10;;;;;;;36.87;51.05;97868.94;4800628;29;20062;-69
2022/08/17 05:55:38;;;;;;;4.13;2.47;;;;;;;36.65;51.37;97857.94;4800819;29;20050;-68
2022/08/17 05:58:44;;;;;;;2.88;2.00;;;;;;;36.67;51.18;97854.69;4800930;29;20432;-69
2022/08/17 06:01:49;;;;;;;8.88;2.30;;;;;;;36.37;51.76;97850.47;4827695;29;20554;-69
2022/08/17 06:05:15;;;;;;;5.35;2.60;;;;;;;36.35;52.79;97839.69;4800873;29;20330;-69
2022/08/17 06:08:05;;;;;;;2.45;2.25;;;;;;;36.22;53.24;97841.38;4812423;29;20074;-69
2022/08/17 06:11:14;;;;;;;3.30;2.25;;;;;;;37.18;54.96;97845.53;4828804;29;20075;-69
2022/08/17 06:14:19;;;;;;;2.85;1.90;;;;;;;36.20;51.73;97838.19;4813487;29;20059;-68
2022/08/17 06:17:20;;;;;;;5.38;1.75;;;;;;;36.48;51.54;97837.25;4811364;29;20054;-68
2022/08/17 06:20:05;;;;;;;3.15;2.00;;;;;;;36.56;51.28;97841.56;4808014;29;20464;-69
2022/08/17 06:23:03;;;;;;;3.13;1.75;;;;;;;36.13;51.35;97832.59;4817871;29;20058;-68
2022/08/17 06:26:00;;;;;;;2.65;1.60;;;;;;;36.02;51.49;97824.28;4821002;29;20667;-68
2022/08/17 06:29:01;;;;;;;3.28;1.88;;;;;;;35.83;52.19;97825.56;4818183;29;20154;-69
2022/08/17 06:31:48;;;;;;;6.55;1.83;;;;;;;35.71;51.77;97826.00;4818719;29;20054;-69
2022/08/17 06:34:38;;;;;;;6.40;2.20;;;;;;;36.16;51.63;97826.22;4817820;29;20046;-68
2022/08/17 06:38:03;;;;;;;3.70;1.98;;;;;;;36.24;52.19;97816.63;4817608;29;20133;-68
2022/08/17 06:41:36;;;;;;;3.65;1.90;;;;;;;35.87;51.48;97815.97;4796962;29;20058;-70
2022/08/17 06:44:25;;;;;;;3.22;1.88;;;;;;;36.19;51.16;97817.03;4797814;29;20063;-69
2022/08/17 06:47:41;;;;;;;7.05;2.75;;;;;;;35.36;53.45;97814.50;4815965;29;20050;-69
2022/08/17 06:50:41;;;;;;;5.45;1.83;;;;;;;36.74;52.24;97805.13;4817600;29;20112;-69
2022/08/17 06:53:44;;;;;;;7.43;2.00;;;;;;;36.80;51.34;97809.09;4817330;29;20062;-69
2022/08/17 06:56:52;;;;;;;2.88;1.98;;;;;;;37.09;51.27;97806.03;4814317;29;20069;-67
2022/08/17 06:59:36;;;;;;;5.38;2.15;;;;;;;36.75;51.60;97806.72;4807169;29;20564;-70
2022/08/17 07:03:23;;;;;;;3.40;2.20;;;;;;;36.20;52.36;97793.50;4835666;29;20450;-68
2022/08/17 07:06:23;;;;;;;8.77;2.40;;;;;;;35.76;53.92;97790.09;4797281;29;20051;-68
2022/08/17 07:09:36;;;;;;;5.63;3.33;;;;;;;35.92;54.42;97792.41;4810364;29;20154;-68
2022/08/17 07:12:36;;;;;;;4.40;2.22;;;;;;;36.14;53.62;97786.72;4799131;29;20058;-70
2022/08/17 07:15:38;;;;;;;4.40;2.00;;;;;;;36.30;51.83;97781.44;4814395;29;20429;-69
2022/08/17 07:18:37;;;;;;;2.35;2.10;;;;;;;35.86;52.60;97786.44;4800048;29;20115;-69
2022/08/17 07:21:48;;;;;;;3.53;2.08;;;;;;;35.64;54.36;97779.34;4807233;29;20077;-69
2022/08/17 07:24:48;;;;;;;4.72;1.90;;;;;;;35.73;53.52;97773.34;4806280;29;20065;-68
2022/08/17 07:27:35;;;;;;;6.50;2.10;;;;;;;35.97;53.47;97780.03;4809249;29;20490;-69
2022/08/17 07:30:28;;;;;;;7.32;1.70;;;;;;;35.45;54.04;97784.19;4807590;29;20062;-69
2022/08/17 07:33:16;;;;;;;3.90;2.00;;;;;;;35.46;53.91;97771.03;4805861;29;20054;-68
2022/08/17 07:36:06;;;;;;;4.18;1.67;;;;;;;35.77;54.14;97765.75;4785546;29;20046;-69
2022/08/17 07:38:56;;;;;;;4.35;2.00;;;;;;;35.66;52.45;97783.31;4798838;29;20061;-69
2022/08/17 07:41:48;;;;;;;10.88;2.17;;;;;;;35.98;52.82;97770.44;4785141;29;20047;-71
2022/08/17 07:44:52;;;;;;;5.13;2.00;;;;;;;35.14;54.38;97771.91;4798133;29;20059;-70
2022/08/17 07:51:27;;;;;;;2.08;1.70;;;;;;;35.55;54.59;97765.03;4815860;29;20070;-70
2022/08/17 07:54:22;;;;;;;4.55;2.00;;;;;;;35.29;55.11;97764.31;4815847;29;20058;-71
2022/08/17 07:57:12;;;;;;;4.75;2.22;;;;;;;34.99;54.93;97765.53;4817165;29;20378;-70
2022/08/17 08:00:08;;;;;;;8.20;1.80;;;;;;;35.29;54.38;97765.13;4816197;29;20050;-69
2022/08/17 08:03:28;;;;;;;6.07;2.33;;;;;;;35.90;53.93;97758.50;4817035;29;20095;-70
2022/08/17 08:06:30;;;;;;;2.03;1.50;;;;;;;35.49;53.25;97767.44;4815753;29;20487;-71
2022/08/17 08:09:28;;;;;;;6.03;1.90;;;;;;;36.07;52.67;97759.63;4798748;29;20065;-71
2022/08/17 08:12:46;;;;;;;2.47;1.73;;;;;;;35.70;54.15;97754.66;4798044;29;20161;-67
2022/08/17 08:15:47;;;;;;;4.50;1.80;;;;;;;35.09;55.00;97753.56;4800535;29;20059;-70
2022/08/17 08:18:39;;;;;;;10.20;2.10;;;;;;;35.19;54.21;97757.56;4798537;29;20059;-70
2022/08/17 08:21:50;;;;;;;3.15;1.55;;;;;;;34.85;54.65;97755.22;4797767;29;20468;-71
2022/08/17 08:24:43;;;;;;;3.95;1.60;;;;;;;35.40;53.38;97753.13;4798493;29;20096;-71
2022/08/17 08:27:37;;;;;;;6.93;1.75;;;;;;;34.94;54.89;97754.00;4799745;29;20077;-70
2022/08/17 08:30:27;;;;;;;8.82;1.85;;;;;;;35.63;53.45;97747.84;4800176;29;20162;-70
2022/08/17 08:33:47;;;;;;;4.13;1.52;;;;;;;35.55;54.09;97748.28;4798559;29;20149;-70
2022/08/17 08:36:55;;;;;;;;;;;;;;;34.96;55.45;97748.81;4805880;29;20074;-70
2022/08/17 08:40:57;;;;;;;6.43;1.85;;;;;;;35.04;55.76;97742.81;4800352;29;20037;-70
2022/08/17 08:44:02;;;;;;;4.05;2.05;;;;;;;34.83;55.21;97743.63;4812640;29;20659;-70
2022/08/17 08:46:54;;;;;;;3.72;1.80;;;;;;;35.46;54.08;97740.34;4813827;29;20058;-71
2022/08/17 08:50:07;;;;;;;5.13;2.00;;;;;;;34.99;55.55;97739.66;4815513;29;20066;-68
2022/08/17 08:53:42;;;;;;;9.82;2.05;;;;;;;34.86;55.38;97722.56;4784932;29;20075;-70
2022/08/17 08:56:40;;;;;;;2.17;1.70;;;;;;;35.00;56.27;97730.88;4783902;29;20055;-70
2022/08/17 09:00:04;;;;;;;2.67;1.92;;;;;;;34.76;56.43;97738.09;4790050;29;20055;-70
2022/08/17 09:03:19;;;;;;;2.60;1.95;;;;;;;35.35;54.66;97732.03;4787754;29;20047;-70
2022/08/17 09:06:41;;;;;;;2.17;1.77;;;;;;;34.92;55.78;97723.72;4803329;29;20066;-69
2022/08/17 09:09:50;;;;;;;4.20;1.67;;;;;;;35.28;56.27;97720.88;4809006;29;20051;-69
2022/08/17 09:12:52;;;;;;;4.97;2.00;;;;;;;35.27;55.65;97720.09;4837532;29;20049;-69
2022/08/17 09:15:57;;;;;;;4.30;2.00;;;;;;;35.43;55.58;97718.84;4837275;29;20698;-69
2022/08/17 09:18:51;;;;;;;4.78;1.80;;;;;;;34.95;56.60;97716.53;4837689;29;20118;-70
2022/08/17 09:21:52;;;;;;;3.30;2.10;;;;;;;35.02;56.35;97710.97;4836733;29;20054;-71
2022/08/17 09:25:14;;;;;;;2.50;1.90;;;;;;;35.43;56.31;97710.47;4836781;29;20075;-70
2022/08/17 09:28:12;;;;;;;4.50;1.80;;;;;;;35.01;56.01;97707.38;4836610;29;20046;-71
2022/08/17 09:31:03;;;;;;;3.25;1.73;;;;;;;34.51;58.05;97693.50;4837470;29;20589;-70
2022/08/17 09:33:57;;;;;;;5.13;1.90;;;;;;;34.90;56.00;97698.25;4806125;29;20138;-69
2022/08/17 09:36:54;;;;;;;4.32;1.63;;;;;;;34.90;53.48;97704.59;4807573;29;20058;-69
2022/08/17 09:40:15;;;;;;;2.67;1.70;;;;;;;35.57;53.54;97684.50;4818283;29;20096;-70
2022/08/17 09:43:15;;;;;;;3.42;1.73;;;;;;;35.40;53.33;97703.69;4832761;29;20083;-69
2022/08/17 09:46:27;;;;;;;4.07;1.83;;;;;;;35.70;54.33;97693.25;4818060;29;20144;-69
2022/08/17 09:49:32;;;;;;;7.65;3.25;;;;;;;35.42;54.16;97690.13;4818645;29;20077;-69
2022/08/17 09:52:33;;;;;;;2.75;1.77;;;;;;;35.19;55.30;97687.84;4818294;29;20055;-69
2022/08/17 09:55:15;;;;;;;3.97;2.00;;;;;;;34.95;54.56;97689.47;4818598;29;20069;-69
2022/08/17 09:58:25;;;;;;;3.63;1.90;;;;;;;35.04;53.63;97691.84;4818976;29;20541;-69
2022/08/17 10:01:35;;;;;;;3.25;1.70;;;;;;;35.10;53.60;97691.03;4817180;29;20491;-70
2022/08/17 10:04:57;;;;;;;2.50;1.70;;;;;;;34.78;53.22;97685.53;4818364;29;20081;-70
2022/08/17 10:07:58;;;;;;;4.15;1.67;;;;;;;35.13;53.06;97688.63;4815962;29;20074;-70
2022/08/17 10:11:08;;;;;;;4.43;2.10;;;;;;;35.19;53.50;97692.63;4818356;29;20086;-70
2022/08/17 10:14:01;;;;;;;3.45;1.75;;;;;;;34.89;53.87;97674.34;4818316;29;20479;-70
2022/08/17 10:17:17;;;;;;;2.08;1.70;;;;;;;35.54;53.04;97680.53;4820116;29;20539;-69
2022/08/17 10:20:02;;;;;;;8.68;2.20;;;;;;;34.66;54.65;97677.53;4802536;29;20051;-70
2022/08/17 10:26:14;;;;;;;;;;;;;;;35.45;53.87;97666.22;4800622;29;20059;-70
2022/08/17 10:29:12;;;;;;;6.85;1.98;;;;;;;34.88;54.13;97672.75;4800236;29;19928;-71
2022/08/17 10:32:09;;;;;;;2.83;1.85;;;;;;;35.59;53.61;97668.94;4799803;29;20058;-70
2022/08/17 10:35:19;;;;;;;6.13;2.42;;;;;;;34.06;55.31;97673.56;4811926;29;20058;-68
2022/08/17 10:38:32;;;;;;;3.50;1.83;;;;;;;34.89;54.77;97668.75;4818356;29;20086;-70
2022/08/17 10:41:43;;;;;;;3.17;2.05;;;;;;;34.94;54.92;97673.94;4817847;29;20054;-70
2022/08/17 10:44:38;;;;;;;4.27;2.50;;;;;;;34.78;55.09;97668.81;4817943;29;20069;-70
2022/08/17 10:48:06;;;;;;;4.55;2.30;;;;;;;35.09;55.30;97655.19;4815671;29;20294;-70
2022/08/17 10:51:02;;;;;;;2.08;1.80;;;;;;;34.52;55.91;97656.84;4813319;29;20104;-70
2022/08/17 10:54:00;;;;;;;5.72;2.10;;;;;;;34.60;56.60;97656.84;4789157;29;20061;-70
2022/08/17 10:56:56;;;;;;;3.95;1.92;;;;;;;34.36;56.13;97650.09;4794758;29;20059;-69
2022/08/17 10:59:46;;;;;;;3.30;2.40;;;;;;;34.69;54.71;97654.50;4782280;29;20066;-71
2022/08/17 11:02:48;;;;;;;6.50;2.20;;;;;;;33.59;57.03;97650.38;4781541;29;20139;-71
2022/08/17 11:06:00;;;;;;;2.88;2.10;;;;;;;34.44;55.60;97649.72;4778053;29;20071;-70
2022/08/17 11:09:04;;;;;;;3.35;1.70;;;;;;;34.50;55.82;97642.53;4799985;29;20081;-69
2022/08/17 11:12:20;;;;;;;4.50;2.10;;;;;;;34.41;56.16;97644.13;4798800;29;20133;-71
2022/08/17 11:15:23;;;;;;;2.03;1.73;;;;;;;34.59;56.11;97639.34;4799607;29;20143;-70
2022/08/17 11:18:27;;;;;;;3.78;2.47;;;;;;;34.49;56.13;97638.16;4799242;29;20078;-70
2022/08/17 11:21:08;;;;;;;4.65;2.45;;;;;;;34.52;55.89;97633.78;4798865;29;20138;-68
2022/08/17 11:24:34;;;;;;;3.10;2.08;;;;;;;33.80;57.96;97632.94;4799209;29;20123;-71
2022/08/17 11:27:28;;;;;;;6.15;2.22;;;;;;;34.49;57.07;97629.81;4773914;29;20145;-73
2022/08/17 11:30:40;;;;;;;3.40;2.22;;;;;;;34.60;57.25;97623.41;4799181;29;20149;-70
2022/08/17 11:33:57;;;;;;;3.53;2.22;;;;;;;34.44;57.09;97630.22;4775339;29;20063;-70
2022/08/17 11:37:15;;;;;;;3.90;1.92;;;;;;;34.55;56.16;97626.59;4781356;29;20063;-70
2022/08/17 11:40:23;;;;;;;2.45;2.00;;;;;;;34.46;56.69;97624.25;4795482;29;20678;-71
2022/08/17 11:43:09;;;;;;;6.20;2.22;;;;;;;34.47;56.43;97621.06;4780611;29;20058;-71
2022/08/17 11:46:20;;;;;;;3.08;2.53;;;;;;;34.78;56.03;97620.59;4795006;29;20059;-68
2022/08/17 11:52:54;;;;;;;2.55;2.00;;;;;;;33.96;58.47;97619.47;4782846;29;20066;-69
2022/08/17 11:55:49;;;;;;;2.85;2.03;;;;;;;33.81;58.43;97612.28;4814505;29;20058;-68
2022/08/17 11:58:44;;;;;;;4.32;2.13;;;;;;;34.17;58.34;97620.69;4817017;29;20134;-68
2022/08/17 12:01:54;;;;;;;8.07;2.60;;;;;;;34.55;57.67;97621.03;4817224;29;20812;-69
2022/08/17 12:04:39;;;;;;;2.53;1.98;;;;;;;34.20;58.10;97617.88;4816590;29;20057;-69
2022/08/17 12:07:31;;;;;;;3.58;2.08;;;;;;;34.33;57.51;97621.06;4813298;29;20062;-68
2022/08/17 12:10:16;;;;;;;2.35;1.88;;;;;;;34.22;57.66;97620.28;4818136;29;20523;-69
2022/08/17 12:13:17;;;;;;;4.43;2.38;;;;;;;34.25;57.47;97631.41;4817086;29;20089;-70
2022/08/17 12:15:53;;;;;;;;;;;;;;;34.75;56.12;97627.78;4817632;29;20398;-70
2022/08/17 12:19:18;;;;;;;2.33;2.05;;;;;;;34.32;57.70;97639.00;4816221;29;19929;-71
2022/08/17 12:22:20;;;;;;;2.33;1.92;;;;;;;34.49;57.48;97632.59;4797875;29;20051;-71
2022/08/17 12:25:38;;;;;;;3.50;2.22;;;;;;;34.66;56.83;97635.75;4812364;29;20051;-70
2022/08/17 12:28:37;;;;;;;2.10;1.70;;;;;;;33.67;57.99;97638.09;4803836;29;20338;-69
2022/08/17 12:31:43;;;;;;;6.70;2.20;;;;;;;34.06;58.28;97640.16;4802177;29;20058;-69
2022/08/17 12:34:53;;;;;;;3.03;1.85;;;;;;;34.21;58.07;97635.41;4783672;29;20108;-70
2022/08/17 12:37:46;;;;;;;2.90;1.70;;;;;;;34.27;57.62;97634.59;4784198;29;20086;-70
2022/08/17 12:40:33;;;;;;;7.20;2.10;;;;;;;34.18;57.71;97638.97;4784400;29;20058;-70
2022/08/17 12:43:32;;;;;;;3.88;2.22;;;;;;;34.10;57.52;97635.38;4783457;29;20063;-69
2022/08/17 12:46:16;;;;;;;2.42;1.90;;;;;;;34.35;57.24;97629.81;4783471;29;20067;-70
2022/08/17 12:49:23;;;;;;;8.05;2.30;;;;;;;34.55;56.93;97632.19;4783313;29;20088;-71
2022/08/17 12:52:27;;;;;;;5.35;2.22;;;;;;;34.33;57.70;97635.78;4819292;29;20062;-69
2022/08/17 12:55:28;;;;;;;4.55;2.53;;;;;;;34.02;58.19;97640.13;4829960;29;20053;-71
2022/08/17 12:58:30;;;;;;;6.25;2.05;;;;;;;34.26;58.56;97643.34;4830160;29;20050;-69
2022/08/17 13:01:24;;;;;;;3.58;2.28;;;;;;;34.31;58.11;97645.75;4835964;29;20057;-70
2022/08/17 13:04:06;;;;;;;5.78;2.35;;;;;;;33.84;58.21;97650.44;4828243;29;20773;-70
2022/08/17 13:06:57;;;;;;;4.78;2.00;;;;;;;34.02;57.42;97651.28;4821712;29;20050;-71
2022/08/17 13:09:49;;;;;;;6.60;2.30;;;;;;;33.61;58.04;97642.41;4829316;29;20646;-70
2022/08/17 13:12:41;;;;;;;2.50;2.30;;;;;;;33.87;56.70;97639.31;4826934;29;20054;-70
2022/08/17 13:15:42;;;;;;;4.15;2.22;;;;;;;33.91;55.64;97650.47;4826406;29;20083;-70
2022/08/17 13:18:48;;;;;;;5.70;2.05;;;;;;;34.08;56.07;97652.47;4824809;29;20069;-70
2022/08/17 13:21:43;;;;;;;3.95;2.13;;;;;;;34.14;56.87;97653.66;4820049;29;20061;-70
2022/08/17 13:24:33;;;;;;;3.45;2.17;;;;;;;33.91;55.29;97656.81;4825499;29;20570;-71
2022/08/17 13:27:26;;;;;;;2.47;2.13;;;;;;;34.03;55.37;97663.19;4819957;29;20086;-72
2022/08/17 13:30:18;;;;;;;5.65;2.38;;;;;;;33.78;56.22;97655.59;4825166;29;20089;-72
2022/08/17 13:33:02;;;;;;;3.00;2.20;;;;;;;33.96;56.02;97669.56;4826777;29;20049;-70
2022/08/17 13:35:56;;;;;;;6.70;2.45;;;;;;;33.82;56.21;97675.09;4824420;29;20453;-70
2022/08/17 13:38:52;;;;;;;5.65;2.50;;;;;;;33.79;56.68;97684.25;4822152;29;20060;-71
2022/08/17 13:41:35;;;;;;;6.10;2.28;;;;;;;33.88;56.59;97679.06;4825335;29;20067;-70
2022/08/17 13:44:31;;;;;;;5.93;2.10;;;;;;;33.62;58.26;97683.75;4799105;29;20496;-70
2022/08/17 13:47:26;;;;;;;5.47;3.08;;;;;;;33.58;57.88;97688.53;4800758;29;20078;-70
2022/08/17 13:50:21;;;;;;;3.17;2.47;;;;;;;33.66;57.26;97695.72;4820563;29;20557;-72
2022/08/17 13:53:24;;;;;;;5.32;2.53;;;;;;;33.46;59.37;97689.69;4836118;29;20057;-71
2022/08/17 13:56:30;;;;;;;10.20;2.53;;;;;;;33.67;58.41;97700.13;4834186;29;20110;-72
2022/08/17 13:59:31;;;;;;;3.60;2.10;;;;;;;33.64;58.72;97692.53;4836051;29;20362;-73
2022/08/17 14:02:34;;;;;;;;;;;;;;;33.68;59.63;97698.91;4836282;29;20137;-74
2022/08/17 14:05:23;;;;;;;3.83;2.55;;;;;;;33.55;60.05;97706.00;4491922;29;10000641;-73
2022/08/17 14:08:12;;;;;;;5.68;2.45;;;;;;;33.16;59.40;97704.63;4798028;29;20666;-74
2022/08/17 14:10:57;;;;;;;6.22;2.75;;;;;;;33.40;59.28;97699.59;4782264;29;20082;-73